Time;durP1;ratioP1;P1;durP2;ratioP2;P2;SDS_P1;SDS_P2;PMS_P1;PMS_P2;Temp;Humidity;BMP_temperature;BMP_pressure;BME280_temperature;BME280_humidity;BME280_pressure;Samples;Min_cycle;Max_cycle;Signal;HPM_P1;HPM_P2
2021/10/15 00:02:07;;;;;;;4.17;2.60;;;;;;;;;;10334011;28;20498;-65
2021/10/15 00:07:04;;;;;;;3.30;2.07;;;;;;;;;;10326525;28;20120;-65
2021/10/15 00:12:02;;;;;;;2.67;2.27;;;;;;;;;;10320954;28;20021;-65
2021/10/15 00:17:00;;;;;;;3.80;2.33;;;;;;;;;;10325185;28;20070;-65
2021/10/15 00:21:58;;;;;;;8.47;1.93;;;;;;;;;;10322595;28;20052;-66
2021/10/15 00:26:55;;;;;;;2.60;1.70;;;;;;;;;;10323182;28;20025;-66
2021/10/15 00:31:53;;;;;;;1.90;1.73;;;;;;;;;;10324228;28;20453;-66
2021/10/15 00:36:51;;;;;;;;;;;;;;;;;;10323722;28;20037;-66
2021/10/15 00:41:48;;;;;;;6.53;1.95;;;;;;;;;;10326094;28;19904;-66
2021/10/15 00:46:46;;;;;;;5.07;1.97;;;;;;;;;;10321895;28;20029;-65
2021/10/15 00:51:44;;;;;;;4.00;2.77;;;;;;;;;;10320301;28;20060;-65
2021/10/15 00:56:42;;;;;;;6.20;1.60;;;;;;;;;;10331745;28;20044;-65
2021/10/15 01:01:40;;;;;;;2.08;1.60;;;;;;;;;;10335541;28;20040;-65
2021/10/15 01:06:37;;;;;;;3.87;1.93;;;;;;;;;;10336312;28;20032;-65
2021/10/15 01:11:35;;;;;;;5.50;2.80;;;;;;;;;;10348509;28;20099;-65
2021/10/15 01:16:33;;;;;;;2.53;1.53;;;;;;;;;;10326121;28;20033;-65
2021/10/15 01:21:31;;;;;;;7.10;1.60;;;;;;;;;;10332436;28;20052;-65
2021/10/15 01:26:29;;;;;;;4.75;2.22;;;;;;;;;;10341457;28;20048;-65
2021/10/15 01:31:27;;;;;;;2.67;1.63;;;;;;;;;;10332707;28;20044;-66
2021/10/15 01:36:26;;;;;;;3.70;2.15;;;;;;;;;;10309459;28;20449;-65
2021/10/15 01:41:23;;;;;;;;;;;;;;;;;;10303488;28;20096;-65
2021/10/15 01:46:21;;;;;;;4.07;1.90;;;;;;;;;;10356480;28;20211;-65
2021/10/15 01:51:19;;;;;;;5.05;2.08;;;;;;;;;;10292139;28;20090;-65
2021/10/15 01:56:16;;;;;;;4.07;1.90;;;;;;;;;;10290952;28;20078;-66
2021/10/15 02:01:14;;;;;;;4.30;2.40;;;;;;;;;;10295017;28;20042;-64
2021/10/15 02:06:12;;;;;;;2.93;2.20;;;;;;;;;;10309028;28;20140;-66
2021/10/15 02:11:09;;;;;;;3.57;2.20;;;;;;;;;;10290535;28;20038;-65
2021/10/15 02:16:06;;;;;;;8.10;2.27;;;;;;;;;;10278074;28;20041;-65
2021/10/15 02:21:04;;;;;;;5.27;2.50;;;;;;;;;;10305352;28;20046;-66
2021/10/15 02:26:02;;;;;;;4.97;2.47;;;;;;;;;;10298480;28;20388;-64
2021/10/15 02:30:59;;;;;;;3.37;2.40;;;;;;;;;;10319732;28;20115;-65
2021/10/15 02:35:56;;;;;;;4.20;2.53;;;;;;;;;;10320501;28;20657;-67
2021/10/15 02:40:54;;;;;;;6.23;2.50;;;;;;;;;;10294752;28;20079;-64
2021/10/15 02:45:51;;;;;;;8.33;3.93;;;;;;;;;;10290199;28;20041;-65
2021/10/15 02:50:49;;;;;;;8.13;5.10;;;;;;;;;;10281977;28;20033;-65
2021/10/15 02:55:46;;;;;;;13.87;4.43;;;;;;;;;;10287898;28;20343;-65
2021/10/15 03:00:43;;;;;;;7.23;3.03;;;;;;;;;;10303893;28;20038;-64
2021/10/15 03:05:41;;;;;;;9.37;3.40;;;;;;;;;;10300629;28;20045;-64
2021/10/15 03:10:38;;;;;;;9.43;5.33;;;;;;;;;;10317202;28;20041;-65
2021/10/15 03:15:36;;;;;;;12.20;4.63;;;;;;;;;;10333927;28;20033;-65
2021/10/15 03:20:35;;;;;;;7.37;3.83;;;;;;;;;;10323414;28;20044;-65
2021/10/15 03:25:32;;;;;;;17.65;7.30;;;;;;;;;;10321359;28;20116;-64
2021/10/15 03:30:30;;;;;;;11.90;4.97;;;;;;;;;;10336795;28;20116;-64
2021/10/15 03:35:27;;;;;;;6.93;4.43;;;;;;;;;;10328890;28;20053;-65
2021/10/15 03:40:25;;;;;;;13.20;5.80;;;;;;;;;;10338453;28;20035;-65
2021/10/15 03:45:22;;;;;;;10.90;4.80;;;;;;;;;;10337294;28;20044;-65
2021/10/15 03:50:20;;;;;;;9.27;4.70;;;;;;;;;;10329896;28;20159;-64
2021/10/15 03:55:17;;;;;;;7.20;5.03;;;;;;;;;;10334532;28;20036;-65
2021/10/15 04:00:15;;;;;;;9.53;3.80;;;;;;;;;;10319488;28;20080;-64
2021/10/15 04:05:14;;;;;;;10.90;5.57;;;;;;;;;;10331799;28;20033;-65
2021/10/15 04:10:12;;;;;;;12.07;4.88;;;;;;;;;;10316761;28;20463;-65
2021/10/15 04:15:11;;;;;;;10.90;6.43;;;;;;;;;;10322822;28;20052;-65
2021/10/15 04:20:08;;;;;;;8.68;5.45;;;;;;;;;;10331331;28;20029;-65
2021/10/15 04:25:06;;;;;;;9.48;5.20;;;;;;;;;;10302953;28;20491;-64
2021/10/15 04:30:04;;;;;;;9.60;4.77;;;;;;;;;;10271997;22;20055;-64
2021/10/15 04:35:02;;;;;;;14.75;6.65;;;;;;;;;;10234966;28;20121;-62
2021/10/15 04:39:59;;;;;;;11.87;6.00;;;;;;;;;;10233249;28;20556;-62
2021/10/15 04:44:57;;;;;;;9.40;5.07;;;;;;;;;;10231781;28;20076;-62
2021/10/15 04:49:54;;;;;;;15.17;6.27;;;;;;;;;;10238847;28;20045;-65
2021/10/15 04:54:52;;;;;;;15.67;6.93;;;;;;;;;;10242440;28;20058;-62
2021/10/15 04:59:49;;;;;;;18.13;8.27;;;;;;;;;;10429866;22;20065;-61
2021/10/15 05:04:47;;;;;;;13.77;7.07;;;;;;;;;;10161855;28;20089;-61
2021/10/15 05:09:44;;;;;;;14.27;6.37;;;;;;;;;;10205846;28;20095;-62
2021/10/15 05:14:42;;;;;;;9.77;5.83;;;;;;;;;;10219590;28;20232;-62
2021/10/15 05:19:40;;;;;;;15.05;6.93;;;;;;;;;;10207363;28;20516;-62
2021/10/15 05:24:38;;;;;;;17.52;8.95;;;;;;;;;;10198282;28;20118;-62
2021/10/15 05:29:35;;;;;;;15.27;6.13;;;;;;;;;;10180173;28;20289;-61
2021/10/15 05:34:32;;;;;;;12.37;3.70;;;;;;;;;;10201668;28;20065;-58
2021/10/15 05:39:30;;;;;;;9.47;2.87;;;;;;;;;;10210939;28;20440;-62
2021/10/15 05:44:27;;;;;;;2.10;1.43;;;;;;;;;;10206644;28;20034;-59
2021/10/15 05:49:25;;;;;;;7.63;2.07;;;;;;;;;;10202258;28;20403;-60
2021/10/15 05:54:29;;;;;;;3.97;0.67;;;;;;;;;;10195034;28;20039;-60
2021/10/15 05:59:26;;;;;;;6.70;1.00;;;;;;;;;;10197384;28;20042;-59
2021/10/15 06:14:56;;;;;;;11.35;1.10;;;;;;;;;;10197628;28;20311;-60
2021/10/15 06:19:54;;;;;;;3.30;1.27;;;;;;;;;;10206525;28;20077;-60
2021/10/15 06:24:51;;;;;;;7.70;1.13;;;;;;;;;;10197588;28;20562;-60
2021/10/15 06:29:49;;;;;;;4.03;0.77;;;;;;;;;;10199871;28;20049;-60
2021/10/15 06:34:47;;;;;;;3.53;0.88;;;;;;;;;;10205744;28;20400;-60
2021/10/15 06:39:44;;;;;;;9.53;0.80;;;;;;;;;;10204413;28;20113;-60
2021/10/15 06:44:42;;;;;;;3.40;0.67;;;;;;;;;;10206929;28;20052;-59
2021/10/15 06:49:39;;;;;;;3.70;1.30;;;;;;;;;;10183442;28;20492;-60
2021/10/15 06:54:37;;;;;;;6.53;1.03;;;;;;;;;;10185886;28;20468;-62
2021/10/15 06:59:34;;;;;;;3.00;1.07;;;;;;;;;;10191698;28;20038;-61
2021/10/15 07:04:32;;;;;;;7.22;1.45;;;;;;;;;;10211451;28;20045;-61
2021/10/15 07:09:29;;;;;;;4.30;0.60;;;;;;;;;;10196414;28;20542;-60
2021/10/15 07:14:27;;;;;;;2.80;0.40;;;;;;;;;;10207103;28;20045;-61
2021/10/15 07:19:24;;;;;;;3.67;0.90;;;;;;;;;;10201091;28;20149;-61
2021/10/15 07:24:22;;;;;;;2.63;0.73;;;;;;;;;;10184293;28;20233;-57
2021/10/15 07:29:19;;;;;;;2.20;0.77;;;;;;;;;;10200896;28;20038;-57
2021/10/15 07:34:16;;;;;;;3.87;0.63;;;;;;;;;;10202970;28;20038;-60
2021/10/15 07:39:14;;;;;;;5.70;0.93;;;;;;;;;;10199808;28;20026;-60
2021/10/15 07:44:12;;;;;;;2.10;0.37;;;;;;;;;;10183183;28;20038;-58
2021/10/15 07:49:10;;;;;;;3.17;0.57;;;;;;;;;;10190345;28;20432;-60
2021/10/15 07:54:07;;;;;;;1.47;0.70;;;;;;;;;;10200283;28;20038;-58
2021/10/15 07:59:05;;;;;;;3.80;0.50;;;;;;;;;;10194007;28;20408;-59
2021/10/15 08:04:04;;;;;;;6.80;1.73;;;;;;;;;;10208944;28;20038;-59
2021/10/15 08:09:01;;;;;;;6.85;1.10;;;;;;;;;;10203063;28;20046;-60
2021/10/15 08:13:59;;;;;;;2.90;1.07;;;;;;;;;;10202848;28;20027;-59
2021/10/15 08:18:57;;;;;;;7.25;0.60;;;;;;;;;;10186063;28;20422;-58
2021/10/15 08:23:54;;;;;;;7.23;1.60;;;;;;;;;;10199132;28;20039;-59
2021/10/15 08:28:58;;;;;;;8.17;0.97;;;;;;;;;;10196775;28;20031;-61
2021/10/15 08:33:56;;;;;;;3.83;0.88;;;;;;;;;;10183190;28;20034;-60
2021/10/15 08:38:53;;;;;;;6.93;0.73;;;;;;;;;;10199228;28;20038;-60
2021/10/15 08:43:52;;;;;;;3.93;1.03;;;;;;;;;;10204153;28;20305;-61
2021/10/15 08:48:51;;;;;;;4.10;1.05;;;;;;;;;;10197944;28;20716;-61
2021/10/15 08:53:53;;;;;;;2.58;0.93;;;;;;;;;;10187101;28;20267;-60
2021/10/15 08:58:58;;;;;;;6.43;0.73;;;;;;;;;;10187594;28;20030;-59
2021/10/15 09:04:02;;;;;;;6.40;1.13;;;;;;;;;;10194104;28;20031;-60
2021/10/15 09:08:59;;;;;;;8.68;1.02;;;;;;;;;;10181825;28;20786;-58
2021/10/15 09:14:06;;;;;;;7.80;1.60;;;;;;;;;;10193615;28;20595;-58
2021/10/15 09:19:20;;;;;;;4.90;0.82;;;;;;;;;;10205545;28;20045;-59
2021/10/15 09:24:31;;;;;;;9.60;1.77;;;;;;;;;;10189809;28;20125;-59
2021/10/15 09:29:39;;;;;;;2.35;1.00;;;;;;;;;;10184701;28;20039;-60
2021/10/15 09:34:37;;;;;;;6.35;1.30;;;;;;;;;;10197696;28;20046;-60
2021/10/15 09:39:35;;;;;;;7.35;1.85;;;;;;;;;;10196542;28;20046;-60
2021/10/15 09:44:35;;;;;;;10.65;1.60;;;;;;;;;;10201222;28;20042;-62
2021/10/15 09:50:04;;;;;;;4.78;0.93;;;;;;;;;;10193918;28;20134;-59
2021/10/15 09:55:07;;;;;;;6.38;1.08;;;;;;;;;;10190594;28;20116;-61
2021/10/15 10:00:07;;;;;;;5.32;1.35;;;;;;;;;;10203414;28;20042;-58
2021/10/15 10:05:06;;;;;;;6.72;1.33;;;;;;;;;;10192495;28;20486;-59
2021/10/15 10:10:04;;;;;;;5.75;0.95;;;;;;;;;;10210996;28;20038;-60
2021/10/15 10:15:02;;;;;;;11.70;1.10;;;;;;;;;;10191687;28;20451;-59
2021/10/15 10:20:05;;;;;;;4.13;1.73;;;;;;;;;;10213116;28;20113;-61
2021/10/15 10:25:03;;;;;;;6.72;1.38;;;;;;;;;;10193842;28;20125;-61
2021/10/15 10:30:00;;;;;;;6.60;1.53;;;;;;;;;;10198743;28;20134;-60
2021/10/15 10:35:18;;;;;;;10.50;1.70;;;;;;;;;;10195086;28;20047;-59
2021/10/15 10:40:15;;;;;;;7.20;1.73;;;;;;;;;;10197362;28;20412;-60
2021/10/15 10:45:13;;;;;;;7.63;1.37;;;;;;;;;;10200086;28;20038;-60
2021/10/15 10:50:12;;;;;;;6.72;0.98;;;;;;;;;;10198769;28;20042;-59
2021/10/15 10:55:29;;;;;;;8.75;1.50;;;;;;;;;;10205909;28;20127;-59
2021/10/15 11:00:28;;;;;;;1.80;1.17;;;;;;;;;;10203343;28;20538;-61
2021/10/15 11:05:30;;;;;;;3.63;1.75;;;;;;;;;;10207176;28;20137;-59
2021/10/15 11:10:27;;;;;;;5.70;0.77;;;;;;;;;;10189586;28;20045;-60
2021/10/15 11:15:27;;;;;;;9.17;1.50;;;;;;;;;;10189115;28;20038;-60
2021/10/15 11:20:26;;;;;;;3.00;0.70;;;;;;;;;;10195746;28;20065;-59
2021/10/15 11:25:25;;;;;;;6.97;1.15;;;;;;;;;;10180693;28;20136;-60
2021/10/15 11:30:24;;;;;;;2.67;0.82;;;;;;;;;;10186792;28;20120;-60
2021/10/15 11:35:23;;;;;;;8.63;1.67;;;;;;;;;;10204982;28;20064;-60
2021/10/15 11:40:21;;;;;;;9.02;0.70;;;;;;;;;;10188979;28;20513;-60
2021/10/15 11:45:32;;;;;;;5.93;1.00;;;;;;;;;;10190937;28;20097;-60
2021/10/15 11:50:33;;;;;;;2.30;1.17;;;;;;;;;;10206123;28;20391;-59
2021/10/15 11:55:35;;;;;;;4.13;1.35;;;;;;;;;;10186806;28;20137;-60
2021/10/15 12:00:32;;;;;;;2.97;0.60;;;;;;;;;;10193840;28;20578;-60
2021/10/15 12:05:30;;;;;;;4.57;0.90;;;;;;;;;;10194282;28;20144;-60
2021/10/15 12:10:29;;;;;;;5.07;0.67;;;;;;;;;;10197363;28;20559;-59
2021/10/15 12:15:27;;;;;;;6.43;0.80;;;;;;;;;;10180024;28;20432;-59
2021/10/15 12:20:24;;;;;;;2.65;0.60;;;;;;;;;;10196379;28;20524;-59
2021/10/15 12:25:25;;;;;;;1.53;0.60;;;;;;;;;;10186573;28;20054;-60
2021/10/15 12:30:26;;;;;;;3.92;1.38;;;;;;;;;;10187871;28;20093;-59
2021/10/15 12:35:28;;;;;;;3.95;1.17;;;;;;;;;;10203359;28;20058;-60
2021/10/15 12:40:32;;;;;;;6.72;0.80;;;;;;;;;;10189838;28;21069;-58
2021/10/15 12:45:32;;;;;;;5.20;0.93;;;;;;;;;;10195765;28;20890;-60
2021/10/15 12:50:31;;;;;;;2.75;0.47;;;;;;;;;;10190014;28;20041;-58
2021/10/15 12:55:29;;;;;;;9.73;1.15;;;;;;;;;;10198459;28;20038;-60
2021/10/15 13:00:26;;;;;;;1.13;0.40;;;;;;;;;;10204245;28;20408;-57
2021/10/15 13:05:26;;;;;;;5.23;0.30;;;;;;;;;;10190922;28;20057;-59
2021/10/15 13:10:25;;;;;;;2.38;0.52;;;;;;;;;;10194778;28;20038;-58
2021/10/15 13:15:23;;;;;;;1.05;0.60;;;;;;;;;;10188967;28;20031;-58
2021/10/15 13:20:22;;;;;;;9.80;1.20;;;;;;;;;;10201761;28;20065;-60
2021/10/15 13:25:20;;;;;;;1.55;0.63;;;;;;;;;;10194092;28;20129;-60
2021/10/15 13:30:18;;;;;;;0.57;0.43;;;;;;;;;;10215630;28;20173;-59
2021/10/15 13:35:15;;;;;;;6.15;0.95;;;;;;;;;;10196389;28;20734;-59
2021/10/15 13:40:17;;;;;;;2.00;0.50;;;;;;;;;;10202457;28;20108;-60
2021/10/15 13:50:16;;;;;;;6.53;0.90;;;;;;;;;;10206985;28;20042;-62
2021/10/15 13:55:14;;;;;;;5.38;0.95;;;;;;;;;;10211288;28;20034;-61
2021/10/15 14:00:16;;;;;;;10.47;1.03;;;;;;;;;;10195389;28;20035;-60
2021/10/15 14:05:14;;;;;;;5.05;1.17;;;;;;;;;;10200314;28;20093;-61
2021/10/15 14:10:12;;;;;;;4.07;1.47;;;;;;;;;;10186858;28;20069;-61
2021/10/15 14:15:09;;;;;;;8.15;1.92;;;;;;;;;;10183730;28;20065;-61
2021/10/15 14:20:07;;;;;;;1.20;0.87;;;;;;;;;;10196018;28;20045;-61
2021/10/15 14:25:04;;;;;;;4.50;0.70;;;;;;;;;;10189562;28;20042;-61
2021/10/15 14:30:02;;;;;;;4.03;1.07;;;;;;;;;;10191668;28;20035;-61
2021/10/15 14:35:00;;;;;;;6.75;1.15;;;;;;;;;;10188927;28;20499;-61
2021/10/15 14:39:58;;;;;;;4.13;0.80;;;;;;;;;;10182774;28;20045;-60
2021/10/15 14:44:55;;;;;;;7.33;1.00;;;;;;;;;;10211598;28;20128;-60
2021/10/15 14:49:53;;;;;;;3.17;0.80;;;;;;;;;;10210130;28;20373;-60
2021/10/15 14:54:50;;;;;;;2.27;0.40;;;;;;;;;;10194592;28;20035;-59
2021/10/15 14:59:47;;;;;;;3.97;0.80;;;;;;;;;;10194700;28;20053;-61
2021/10/15 15:04:45;;;;;;;5.40;1.20;;;;;;;;;;10190456;28;20035;-62
2021/10/15 15:09:43;;;;;;;4.03;0.60;;;;;;;;;;10204569;28;20062;-62
2021/10/15 15:14:41;;;;;;;4.57;0.60;;;;;;;;;;10186152;28;20489;-62
2021/10/15 15:19:38;;;;;;;2.07;0.63;;;;;;;;;;10214063;28;20034;-60
2021/10/15 15:24:36;;;;;;;1.60;0.63;;;;;;;;;;10192305;28;20171;-61
2021/10/15 15:29:33;;;;;;;0.90;0.60;;;;;;;;;;10185890;28;20416;-61
2021/10/15 15:34:31;;;;;;;6.00;0.70;;;;;;;;;;10198178;28;20054;-62
2021/10/15 15:39:30;;;;;;;3.63;0.80;;;;;;;;;;10191261;28;20039;-61
2021/10/15 15:44:32;;;;;;;8.88;1.30;;;;;;;;;;10188772;28;20407;-62
2021/10/15 15:49:31;;;;;;;4.57;0.82;;;;;;;;;;10178910;28;20038;-62
2021/10/15 15:54:29;;;;;;;10.00;0.75;;;;;;;;;;10188193;28;20108;-61
2021/10/15 15:59:26;;;;;;;4.77;0.83;;;;;;;;;;10192691;28;20116;-61
2021/10/15 16:04:24;;;;;;;0.40;0.40;;;;;;;;;;10209209;28;20282;-62
2021/10/15 16:09:21;;;;;;;3.87;1.07;;;;;;;;;;10187974;28;20042;-62
2021/10/15 16:14:19;;;;;;;3.20;0.33;;;;;;;;;;10195745;28;20042;-61
2021/10/15 16:19:16;;;;;;;0.60;0.20;;;;;;;;;;10206304;28;20207;-60
2021/10/15 16:24:13;;;;;;;2.30;0.50;;;;;;;;;;10195955;28;20492;-60
2021/10/15 16:29:12;;;;;;;2.43;0.70;;;;;;;;;;10195034;28;20034;-62
2021/10/15 16:34:09;;;;;;;;;;;;;;;;;;10204037;28;20046;-61
2021/10/15 16:39:07;;;;;;;2.85;1.08;;;;;;;;;;10189375;28;20291;-60
2021/10/15 16:44:04;;;;;;;4.17;0.70;;;;;;;;;;10192875;28;20030;-60
2021/10/15 16:49:02;;;;;;;3.33;0.93;;;;;;;;;;10197544;28;21349;-60
2021/10/15 16:53:59;;;;;;;9.03;1.53;;;;;;;;;;10192780;28;20042;-61
2021/10/15 16:58:57;;;;;;;4.97;0.87;;;;;;;;;;10180074;28;20109;-56
2021/10/15 17:03:55;;;;;;;6.82;1.77;;;;;;;;;;10215141;28;20030;-60
2021/10/15 17:08:52;;;;;;;4.07;0.82;;;;;;;;;;10194938;28;20026;-61
2021/10/15 17:13:50;;;;;;;1.40;0.30;;;;;;;;;;10201398;28;20037;-61
2021/10/15 17:18:47;;;;;;;6.13;1.00;;;;;;;;;;10206079;28;20097;-62
2021/10/15 17:23:45;;;;;;;0.20;0.20;;;;;;;;;;10197252;28;20382;-62
2021/10/15 17:28:43;;;;;;;0.30;0.30;;;;;;;;;;10190857;28;20508;-60
2021/10/15 17:33:41;;;;;;;0.30;0.30;;;;;;;;;;10203976;28;20267;-60
2021/10/15 17:38:39;;;;;;;1.17;0.65;;;;;;;;;;10205146;28;20093;-61
2021/10/15 17:43:36;;;;;;;0.67;0.23;;;;;;;;;;10202156;28;20121;-60
2021/10/15 17:48:34;;;;;;;9.68;0.47;;;;;;;;;;10197667;28;20126;-61
2021/10/15 17:53:32;;;;;;;3.10;0.80;;;;;;;;;;10195111;28;20449;-61
2021/10/15 17:58:29;;;;;;;0.40;0.40;;;;;;;;;;10200278;28;20033;-62
2021/10/15 18:03:26;;;;;;;6.20;0.70;;;;;;;;;;10188527;28;20035;-60
2021/10/15 18:08:24;;;;;;;1.30;0.33;;;;;;;;;;10204827;28;20047;-60
2021/10/15 18:13:24;;;;;;;3.27;0.50;;;;;;;;;;10179053;28;20034;-59
2021/10/15 18:18:21;;;;;;;1.27;0.77;;;;;;;;;;10183289;28;20034;-59
2021/10/15 18:23:18;;;;;;;8.17;0.57;;;;;;;;;;10200607;28;20027;-59
2021/10/15 18:28:16;;;;;;;9.17;2.90;;;;;;;;;;10219020;28;20046;-58
2021/10/15 18:33:14;;;;;;;106.50;23.27;;;;;;;;;;10211235;28;20038;-60
2021/10/15 18:38:12;;;;;;;17.98;4.28;;;;;;;;;;10194557;28;20050;-56
2021/10/15 18:43:09;;;;;;;23.97;9.77;;;;;;;;;;10202471;28;20038;-59
2021/10/15 18:48:07;;;;;;;58.40;31.30;;;;;;;;;;10201445;28;20116;-57
2021/10/15 18:53:06;;;;;;;21.27;9.70;;;;;;;;;;10213128;28;20038;-60
2021/10/15 18:58:04;;;;;;;11.60;6.90;;;;;;;;;;10205089;28;20104;-61
2021/10/15 19:03:01;;;;;;;8.70;5.03;;;;;;;;;;10201896;28;20096;-60
2021/10/15 19:07:58;;;;;;;7.23;4.20;;;;;;;;;;10213410;28;20073;-61
2021/10/15 19:12:56;;;;;;;6.83;3.70;;;;;;;;;;10209059;28;20492;-62
2021/10/15 19:17:54;;;;;;;;;;;;;;;;;;10192768;28;20045;-59
2021/10/15 19:22:53;;;;;;;5.13;2.40;;;;;;;;;;10201626;28;19913;-61
2021/10/15 19:27:52;;;;;;;4.85;2.15;;;;;;;;;;10189833;28;20050;-60
2021/10/15 19:32:49;;;;;;;6.33;2.73;;;;;;;;;;10214249;28;20050;-60
2021/10/15 19:37:48;;;;;;;;;;;;;;;;;;10206813;28;20467;-60
2021/10/15 19:42:45;;;;;;;15.05;2.65;;;;;;;;;;10200135;28;19914;-59
2021/10/15 19:47:42;;;;;;;5.67;2.03;;;;;;;;;;10208690;28;20042;-61
2021/10/15 19:52:40;;;;;;;6.27;2.00;;;;;;;;;;10203935;28;20035;-61
2021/10/15 19:57:37;;;;;;;5.07;1.03;;;;;;;;;;10201122;28;20423;-61
2021/10/15 20:02:35;;;;;;;0.67;0.47;;;;;;;;;;10192052;28;20574;-61
2021/10/15 20:07:33;;;;;;;0.40;0.38;;;;;;;;;;10198079;28;21525;-61
2021/10/15 20:12:31;;;;;;;5.55;0.90;;;;;;;;;;10217014;28;20085;-60
2021/10/15 20:17:29;;;;;;;3.93;0.73;;;;;;;;;;10204220;28;20069;-62
2021/10/15 20:22:26;;;;;;;6.63;2.03;;;;;;;;;;10190372;28;20043;-61
2021/10/15 20:27:24;;;;;;;2.33;1.00;;;;;;;;;;10202441;28;20487;-61
2021/10/15 20:32:21;;;;;;;3.20;1.17;;;;;;;;;;10190597;28;20060;-62
2021/10/15 20:37:18;;;;;;;3.07;0.70;;;;;;;;;;10190121;28;20428;-62
2021/10/15 20:42:17;;;;;;;4.60;1.47;;;;;;;;;;10193660;28;20486;-62
2021/10/15 20:47:15;;;;;;;4.30;0.75;;;;;;;;;;10181565;28;20527;-62
2021/10/15 20:52:14;;;;;;;4.97;0.73;;;;;;;;;;10182901;28;20133;-62
2021/10/15 20:57:12;;;;;;;10.00;1.40;;;;;;;;;;10195089;28;20118;-61
2021/10/15 21:02:09;;;;;;;1.93;0.70;;;;;;;;;;10193946;28;20500;-60
2021/10/15 21:07:07;;;;;;;0.83;0.50;;;;;;;;;;10188393;28;20546;-62
2021/10/15 21:12:06;;;;;;;4.97;0.63;;;;;;;;;;10188268;28;20039;-64
2021/10/15 21:17:03;;;;;;;0.35;0.30;;;;;;;;;;10194033;28;20038;-63
2021/10/15 21:22:01;;;;;;;2.23;0.67;;;;;;;;;;10187502;28;20050;-62
2021/10/15 21:27:00;;;;;;;2.05;0.93;;;;;;;;;;10206025;28;20066;-62
2021/10/15 21:31:57;;;;;;;1.87;0.50;;;;;;;;;;10200809;28;20038;-62
2021/10/15 21:36:54;;;;;;;6.80;0.90;;;;;;;;;;10191115;28;20059;-61
2021/10/15 21:41:52;;;;;;;9.10;1.10;;;;;;;;;;10192176;28;20076;-63
2021/10/15 21:46:49;;;;;;;1.20;0.50;;;;;;;;;;10185730;28;20143;-62
2021/10/15 21:51:47;;;;;;;3.23;0.97;;;;;;;;;;10183244;28;20042;-63
2021/10/15 21:56:47;;;;;;;4.30;0.93;;;;;;;;;;10187726;28;21284;-62
2021/10/15 22:01:45;;;;;;;5.10;0.73;;;;;;;;;;10202700;28;20121;-62
2021/10/15 22:06:42;;;;;;;1.83;0.60;;;;;;;;;;10212096;28;20034;-61
2021/10/15 22:11:40;;;;;;;11.18;1.20;;;;;;;;;;10207286;28;20511;-61
2021/10/15 22:16:37;;;;;;;5.87;0.60;;;;;;;;;;10199633;28;20042;-61
2021/10/15 22:21:35;;;;;;;6.87;0.77;;;;;;;;;;10180480;28;20034;-62
2021/10/15 22:26:33;;;;;;;7.07;0.90;;;;;;;;;;10198072;28;20135;-62
2021/10/15 22:31:30;;;;;;;5.47;0.90;;;;;;;;;;10183006;28;20035;-61
2021/10/15 22:36:27;;;;;;;4.90;1.17;;;;;;;;;;10191699;28;20042;-62
2021/10/15 22:41:25;;;;;;;4.80;1.40;;;;;;;;;;10189196;28;20434;-60
2021/10/15 22:46:22;;;;;;;2.50;1.07;;;;;;;;;;10196376;28;20075;-62
2021/10/15 22:51:19;;;;;;;1.67;0.47;;;;;;;;;;10202293;28;20157;-62
2021/10/15 22:56:17;;;;;;;1.97;0.43;;;;;;;;;;10185731;28;20038;-64
2021/10/15 23:01:14;;;;;;;4.13;0.70;;;;;;;;;;10191161;28;20061;-62
2021/10/15 23:06:12;;;;;;;7.80;1.03;;;;;;;;;;10193903;28;20042;-64
2021/10/15 23:11:09;;;;;;;1.60;0.73;;;;;;;;;;10180776;28;20489;-62
2021/10/15 23:16:06;;;;;;;0.60;0.20;;;;;;;;;;10214104;28;20405;-62
2021/10/15 23:21:04;;;;;;;5.43;0.70;;;;;;;;;;10203433;28;20042;-62
2021/10/15 23:26:03;;;;;;;5.20;0.90;;;;;;;;;;10212498;28;20038;-61
2021/10/15 23:31:00;;;;;;;6.13;1.03;;;;;;;;;;10200343;28;20034;-61
2021/10/15 23:35:57;;;;;;;6.43;0.40;;;;;;;;;;10171681;28;20035;-59
2021/10/15 23:40:55;;;;;;;1.30;0.53;;;;;;;;;;10206729;28;20026;-60
2021/10/15 23:45:52;;;;;;;0.63;0.30;;;;;;;;;;10203532;28;20038;-62
2021/10/15 23:50:50;;;;;;;3.67;1.60;;;;;;;;;;10209834;28;20031;-62
2021/10/15 23:55:47;;;;;;;1.03;0.40;;;;;;;;;;10213386;28;20465;-62
